sensor_id;sensor_type;location;lat;lon;timestamp;pressure;altitude;pressure_sealevel;temperature;humidity
30744;BME280;17486;46.738;7.622;2023-03-14T00:00:58;94105.03;;;11.94;58.80
30744;BME280;17486;46.738;7.622;2023-03-14T00:03:24;94161.03;;;12.37;58.44
30744;BME280;17486;46.738;7.622;2023-03-14T00:05:49;94170.13;;;12.32;58.83
30744;BME280;17486;46.738;7.622;2023-03-14T00:08:15;94103.81;;;12.00;58.96
30744;BME280;17486;46.738;7.622;2023-03-14T00:10:41;94156.03;;;12.34;59.09
30744;BME280;17486;46.738;7.622;2023-03-14T00:13:06;94150.09;;;12.32;59.19
30744;BME280;17486;46.738;7.622;2023-03-14T00:15:33;94140.97;;;12.38;59.36
30744;BME280;17486;46.738;7.622;2023-03-14T00:17:58;94080.13;;;12.03;58.62
30744;BME280;17486;46.738;7.622;2023-03-14T00:20:24;94072.41;;;12.02;57.64
30744;BME280;17486;46.738;7.622;2023-03-14T00:22:49;94118.31;;;12.27;58.14
30744;BME280;17486;46.738;7.622;2023-03-14T00:25:15;94029.78;;;11.78;58.18
30744;BME280;17486;46.738;7.622;2023-03-14T00:27:40;94115.03;;;12.01;58.63
30744;BME280;17486;46.738;7.622;2023-03-14T00:30:06;94119.44;;;12.00;59.38
30744;BME280;17486;46.738;7.622;2023-03-14T00:32:33;94095.41;;;11.84;59.49
30744;BME280;17486;46.738;7.622;2023-03-14T00:34:58;94087.16;;;11.66;58.09
30744;BME280;17486;46.738;7.622;2023-03-14T00:37:24;94127.81;;;11.55;56.77
30744;BME280;17486;46.738;7.622;2023-03-14T00:39:51;94094.69;;;11.33;55.11
30744;BME280;17486;46.738;7.622;2023-03-14T00:42:16;94037.06;;;10.89;56.16
30744;BME280;17486;46.738;7.622;2023-03-14T00:44:42;94014.81;;;10.85;56.17
30744;BME280;17486;46.738;7.622;2023-03-14T00:47:07;94006.50;;;10.80;55.79
30744;BME280;17486;46.738;7.622;2023-03-14T00:49:32;94053.69;;;10.87;55.31
30744;BME280;17486;46.738;7.622;2023-03-14T00:51:58;94051.66;;;10.66;55.88
30744;BME280;17486;46.738;7.622;2023-03-14T00:54:23;94076.19;;;10.88;56.81
30744;BME280;17486;46.738;7.622;2023-03-14T00:56:49;94070.97;;;11.01;57.17
30744;BME280;17486;46.738;7.622;2023-03-14T00:59:15;94075.25;;;11.26;57.68
30744;BME280;17486;46.738;7.622;2023-03-14T01:01:40;94093.28;;;11.16;58.29
30744;BME280;17486;46.738;7.622;2023-03-14T01:04:06;94084.28;;;10.96;59.49
30744;BME280;17486;46.738;7.622;2023-03-14T01:06:32;94110.22;;;10.85;60.48
30744;BME280;17486;46.738;7.622;2023-03-14T01:08:57;94083.06;;;10.63;61.28
30744;BME280;17486;46.738;7.622;2023-03-14T01:11:25;94060.09;;;10.44;61.85
30744;BME280;17486;46.738;7.622;2023-03-14T01:13:51;94018.19;;;10.23;60.86
30744;BME280;17486;46.738;7.622;2023-03-14T01:16:17;94056.91;;;10.40;60.67
30744;BME280;17486;46.738;7.622;2023-03-14T01:18:44;94075.09;;;10.53;59.98
30744;BME280;17486;46.738;7.622;2023-03-14T01:23:44;94104.91;;;10.73;59.63
30744;BME280;17486;46.738;7.622;2023-03-14T01:26:13;94094.94;;;10.67;58.66
30744;BME280;17486;46.738;7.622;2023-03-14T01:28:39;94020.16;;;10.32;58.37
30744;BME280;17486;46.738;7.622;2023-03-14T01:31:07;94072.91;;;10.60;59.68
30744;BME280;17486;46.738;7.622;2023-03-14T01:33:33;94037.25;;;10.36;59.10
30744;BME280;17486;46.738;7.622;2023-03-14T01:35:59;94076.72;;;10.67;58.80
30744;BME280;17486;46.738;7.622;2023-03-14T01:38:24;94075.16;;;10.65;58.04
30744;BME280;17486;46.738;7.622;2023-03-14T01:44:12;94073.28;;;10.80;58.59
30744;BME280;17486;46.738;7.622;2023-03-14T01:46:40;94068.84;;;10.56;58.27
30744;BME280;17486;46.738;7.622;2023-03-14T01:56:53;93990.03;;;10.42;58.10
30744;BME280;17486;46.738;7.622;2023-03-14T01:59:19;94047.19;;;10.68;58.14
30744;BME280;17486;46.738;7.622;2023-03-14T02:01:46;94028.69;;;10.60;58.21
30744;BME280;17486;46.738;7.622;2023-03-14T02:04:14;94032.53;;;10.54;58.22
30744;BME280;17486;46.738;7.622;2023-03-14T02:07:21;94023.41;;;10.49;58.43
30744;BME280;17486;46.738;7.622;2023-03-14T02:09:48;93946.16;;;10.25;58.49
30744;BME280;17486;46.738;7.622;2023-03-14T02:12:16;93987.09;;;10.60;57.96
30744;BME280;17486;46.738;7.622;2023-03-14T02:14:42;93979.59;;;10.55;57.82
30744;BME280;17486;46.738;7.622;2023-03-14T02:17:14;94001.94;;;10.71;57.72
30744;BME280;17486;46.738;7.622;2023-03-14T02:22:44;93984.91;;;10.91;56.85
30744;BME280;17486;46.738;7.622;2023-03-14T02:25:15;93998.38;;;10.85;55.95
30744;BME280;17486;46.738;7.622;2023-03-14T02:27:42;93980.09;;;10.73;56.73
30744;BME280;17486;46.738;7.622;2023-03-14T02:30:12;93972.53;;;10.70;57.07
30744;BME280;17486;46.738;7.622;2023-03-14T02:32:41;93982.59;;;10.62;57.23
30744;BME280;17486;46.738;7.622;2023-03-14T02:35:11;93977.03;;;10.42;57.58
30744;BME280;17486;46.738;7.622;2023-03-14T02:37:43;93988.69;;;10.50;57.35
30744;BME280;17486;46.738;7.622;2023-03-14T02:40:11;93986.06;;;10.50;57.59
30744;BME280;17486;46.738;7.622;2023-03-14T02:42:36;93912.81;;;10.19;57.76
30744;BME280;17486;46.738;7.622;2023-03-14T02:47:33;93913.59;;;10.32;57.03
30744;BME280;17486;46.738;7.622;2023-03-14T02:50:03;93987.66;;;10.76;57.73
30744;BME280;17486;46.738;7.622;2023-03-14T02:52:29;93908.41;;;10.32;58.32
30744;BME280;17486;46.738;7.622;2023-03-14T02:54:54;93959.75;;;10.54;58.22
30744;BME280;17486;46.738;7.622;2023-03-14T02:57:20;93952.59;;;10.32;58.43
30744;BME280;17486;46.738;7.622;2023-03-14T02:59:45;93908.25;;;10.09;58.22
30744;BME280;17486;46.738;7.622;2023-03-14T03:02:10;93875.66;;;9.79;57.88
30744;BME280;17486;46.738;7.622;2023-03-14T03:04:36;93866.66;;;9.72;58.47
30744;BME280;17486;46.738;7.622;2023-03-14T03:07:01;93861.25;;;9.75;58.43
30744;BME280;17486;46.738;7.622;2023-03-14T03:09:27;93860.31;;;9.76;58.25
30744;BME280;17486;46.738;7.622;2023-03-14T03:11:52;93852.19;;;9.81;58.88
30744;BME280;17486;46.738;7.622;2023-03-14T03:14:17;93849.59;;;9.81;59.05
30744;BME280;17486;46.738;7.622;2023-03-14T03:16:43;93899.16;;;10.28;58.54
30744;BME280;17486;46.738;7.622;2023-03-14T03:19:08;93874.38;;;9.98;58.00
30744;BME280;17486;46.738;7.622;2023-03-14T03:21:33;93921.84;;;10.26;58.60
30744;BME280;17486;46.738;7.622;2023-03-14T03:24:00;93861.75;;;9.81;57.10
30744;BME280;17486;46.738;7.622;2023-03-14T03:26:25;93883.69;;;9.76;57.75
30744;BME280;17486;46.738;7.622;2023-03-14T03:28:51;93921.53;;;10.18;57.97
30744;BME280;17486;46.738;7.622;2023-03-14T03:31:17;93830.63;;;9.68;57.78
30744;BME280;17486;46.738;7.622;2023-03-14T03:33:43;93898.88;;;10.20;57.09
30744;BME280;17486;46.738;7.622;2023-03-14T03:36:09;93870.53;;;10.17;56.89
30744;BME280;17486;46.738;7.622;2023-03-14T03:38:34;93813.72;;;9.99;56.97
30744;BME280;17486;46.738;7.622;2023-03-14T03:41:03;93859.75;;;10.34;56.48
30744;BME280;17486;46.738;7.622;2023-03-14T03:43:29;93843.69;;;10.16;56.95
30744;BME280;17486;46.738;7.622;2023-03-14T03:45:54;93868.31;;;10.36;54.44
30744;BME280;17486;46.738;7.622;2023-03-14T03:48:20;93800.88;;;9.85;55.60
30744;BME280;17486;46.738;7.622;2023-03-14T03:50:46;93889.00;;;10.38;55.49
30744;BME280;17486;46.738;7.622;2023-03-14T03:53:12;93886.91;;;10.30;56.29
30744;BME280;17486;46.738;7.622;2023-03-14T03:55:40;93863.78;;;10.14;55.96
30744;BME280;17486;46.738;7.622;2023-03-14T03:58:07;93843.94;;;10.13;57.17
30744;BME280;17486;46.738;7.622;2023-03-14T04:00:32;93793.06;;;9.98;56.98
30744;BME280;17486;46.738;7.622;2023-03-14T04:02:58;93783.03;;;9.80;56.83
30744;BME280;17486;46.738;7.622;2023-03-14T04:05:24;93849.75;;;10.17;56.51
30744;BME280;17486;46.738;7.622;2023-03-14T04:07:49;93799.84;;;9.87;56.53
30744;BME280;17486;46.738;7.622;2023-03-14T04:10:15;93823.97;;;10.13;56.06
30744;BME280;17486;46.738;7.622;2023-03-14T04:12:40;93737.41;;;9.52;56.26
30744;BME280;17486;46.738;7.622;2023-03-14T04:15:06;93799.91;;;9.99;55.47
30744;BME280;17486;46.738;7.622;2023-03-14T04:17:32;93767.34;;;9.82;55.14
30744;BME280;17486;46.738;7.622;2023-03-14T04:19:57;93766.69;;;9.91;55.20
30744;BME280;17486;46.738;7.622;2023-03-14T04:22:22;93738.25;;;9.89;55.56
30744;BME280;17486;46.738;7.622;2023-03-14T04:24:48;93765.88;;;10.15;55.50
30744;BME280;17486;46.738;7.622;2023-03-14T04:27:13;93798.63;;;10.41;55.97
30744;BME280;17486;46.738;7.622;2023-03-14T04:33:01;93809.84;;;10.66;55.38
30744;BME280;17486;46.738;7.622;2023-03-14T04:35:26;93800.06;;;10.70;54.93
30744;BME280;17486;46.738;7.622;2023-03-14T04:37:52;93730.66;;;10.35;54.80
30744;BME280;17486;46.738;7.622;2023-03-14T04:40:18;93804.94;;;10.74;54.55
30744;BME280;17486;46.738;7.622;2023-03-14T04:42:43;93797.13;;;10.74;54.44
30744;BME280;17486;46.738;7.622;2023-03-14T04:45:09;93784.94;;;10.75;53.87
30744;BME280;17486;46.738;7.622;2023-03-14T04:47:34;93773.94;;;10.71;53.38
30744;BME280;17486;46.738;7.622;2023-03-14T04:50:00;93725.06;;;10.28;53.44
30744;BME280;17486;46.738;7.622;2023-03-14T04:52:26;93775.56;;;10.61;53.23
30744;BME280;17486;46.738;7.622;2023-03-14T04:54:52;93788.78;;;10.58;54.18
30744;BME280;17486;46.738;7.622;2023-03-14T04:57:18;93767.63;;;10.51;54.10
30744;BME280;17486;46.738;7.622;2023-03-14T04:59:43;93745.00;;;10.40;54.69
30744;BME280;17486;46.738;7.622;2023-03-14T05:02:08;93684.84;;;10.09;54.41
30744;BME280;17486;46.738;7.622;2023-03-14T05:04:34;93748.31;;;10.42;56.22
30744;BME280;17486;46.738;7.622;2023-03-14T05:07:00;93724.47;;;10.24;57.27
30744;BME280;17486;46.738;7.622;2023-03-14T05:09:26;93751.16;;;10.39;56.52
30744;BME280;17486;46.738;7.622;2023-03-14T05:11:51;93730.66;;;10.35;56.06
30744;BME280;17486;46.738;7.622;2023-03-14T05:14:17;93676.13;;;9.86;56.98
30744;BME280;17486;46.738;7.622;2023-03-14T05:16:42;93703.59;;;10.02;56.93
30744;BME280;17486;46.738;7.622;2023-03-14T05:19:08;93702.00;;;9.88;58.28
30744;BME280;17486;46.738;7.622;2023-03-14T05:21:33;93717.59;;;9.88;58.54
30744;BME280;17486;46.738;7.622;2023-03-14T05:23:59;93675.91;;;9.41;60.53
30744;BME280;17486;46.738;7.622;2023-03-14T05:26:24;93699.38;;;9.39;60.93
30744;BME280;17486;46.738;7.622;2023-03-14T05:28:49;93693.84;;;9.31;59.67
30744;BME280;17486;46.738;7.622;2023-03-14T05:31:15;93726.81;;;9.55;60.21
30744;BME280;17486;46.738;7.622;2023-03-14T05:33:40;93678.59;;;9.39;61.22
30744;BME280;17486;46.738;7.622;2023-03-14T05:36:06;93673.72;;;9.35;62.02
30744;BME280;17486;46.738;7.622;2023-03-14T05:38:31;93601.41;;;8.93;61.81
30744;BME280;17486;46.738;7.622;2023-03-14T05:40:57;93666.63;;;9.50;61.21
30744;BME280;17486;46.738;7.622;2023-03-14T05:43:22;93667.22;;;9.53;61.68
30744;BME280;17486;46.738;7.622;2023-03-14T05:45:47;93648.56;;;9.48;61.94
30744;BME280;17486;46.738;7.622;2023-03-14T05:48:13;93564.88;;;8.96;62.22
30744;BME280;17486;46.738;7.622;2023-03-14T05:50:38;93617.81;;;8.93;62.45
30744;BME280;17486;46.738;7.622;2023-03-14T05:53:04;93643.47;;;9.22;62.28
30744;BME280;17486;46.738;7.622;2023-03-14T05:55:29;93647.50;;;9.26;62.34
30744;BME280;17486;46.738;7.622;2023-03-14T05:57:55;93578.75;;;8.58;63.85
30744;BME280;17486;46.738;7.622;2023-03-14T06:00:21;93645.59;;;8.91;63.97
30744;BME280;17486;46.738;7.622;2023-03-14T06:02:46;93635.66;;;8.72;64.02
30744;BME280;17486;46.738;7.622;2023-03-14T06:05:12;93595.88;;;8.48;63.97
30744;BME280;17486;46.738;7.622;2023-03-14T06:07:37;93582.56;;;8.39;64.50
30744;BME280;17486;46.738;7.622;2023-03-14T06:10:03;93663.00;;;8.89;64.08
30744;BME280;17486;46.738;7.622;2023-03-14T06:12:29;93646.97;;;8.71;64.30
30744;BME280;17486;46.738;7.622;2023-03-14T06:14:54;93667.78;;;8.83;64.28
30744;BME280;17486;46.738;7.622;2023-03-14T06:17:19;93630.69;;;8.69;64.18
30744;BME280;17486;46.738;7.622;2023-03-14T06:19:45;93602.59;;;8.63;64.42
30744;BME280;17486;46.738;7.622;2023-03-14T06:22:10;93665.06;;;8.97;64.35
30744;BME280;17486;46.738;7.622;2023-03-14T06:24:36;93615.13;;;8.69;63.88
30744;BME280;17486;46.738;7.622;2023-03-14T06:27:01;93658.44;;;9.06;63.25
30744;BME280;17486;46.738;7.622;2023-03-14T06:29:28;93646.00;;;8.98;63.77
30744;BME280;17486;46.738;7.622;2023-03-14T06:31:54;93601.66;;;8.64;63.41
30744;BME280;17486;46.738;7.622;2023-03-14T06:34:20;93676.59;;;9.06;62.67
30744;BME280;17486;46.738;7.622;2023-03-14T06:36:45;93659.25;;;9.06;62.84
30744;BME280;17486;46.738;7.622;2023-03-14T06:39:10;93670.34;;;9.08;63.29
30744;BME280;17486;46.738;7.622;2023-03-14T06:41:36;93673.34;;;9.15;63.06
30744;BME280;17486;46.738;7.622;2023-03-14T06:44:01;93675.84;;;9.17;62.81
30744;BME280;17486;46.738;7.622;2023-03-14T06:46:26;93614.41;;;8.67;63.06
30744;BME280;17486;46.738;7.622;2023-03-14T06:48:52;93689.94;;;9.12;63.05
30744;BME280;17486;46.738;7.622;2023-03-14T06:51:17;93663.22;;;8.99;63.33
30744;BME280;17486;46.738;7.622;2023-03-14T06:53:43;93688.72;;;9.05;63.61
30744;BME280;17486;46.738;7.622;2023-03-14T06:56:08;93641.03;;;8.82;63.05
30744;BME280;17486;46.738;7.622;2023-03-14T06:58:34;93701.19;;;9.00;63.85
30744;BME280;17486;46.738;7.622;2023-03-14T07:00:59;93633.91;;;8.73;63.68
30744;BME280;17486;46.738;7.622;2023-03-14T07:03:25;93591.41;;;8.50;63.58
30744;BME280;17486;46.738;7.622;2023-03-14T07:05:50;93713.16;;;9.27;64.17
30744;BME280;17486;46.738;7.622;2023-03-14T07:08:16;93711.19;;;9.43;65.63
30744;BME280;17486;46.738;7.622;2023-03-14T07:10:41;93667.31;;;9.27;65.11
30744;BME280;17486;46.738;7.622;2023-03-14T07:13:07;93656.31;;;9.37;64.40
30744;BME280;17486;46.738;7.622;2023-03-14T07:15:33;93703.59;;;9.77;64.47
30744;BME280;17486;46.738;7.622;2023-03-14T07:17:58;93689.47;;;9.82;63.68
30744;BME280;17486;46.738;7.622;2023-03-14T07:20:24;93712.97;;;9.91;62.50
30744;BME280;17486;46.738;7.622;2023-03-14T07:22:49;93678.50;;;9.65;62.52
30744;BME280;17486;46.738;7.622;2023-03-14T07:25:16;93679.94;;;9.69;62.46
30744;BME280;17486;46.738;7.622;2023-03-14T07:27:45;93724.16;;;10.05;62.76
30744;BME280;17486;46.738;7.622;2023-03-14T07:30:13;93726.31;;;10.11;62.41
30744;BME280;17486;46.738;7.622;2023-03-14T07:32:38;93734.28;;;10.21;63.63
30744;BME280;17486;46.738;7.622;2023-03-14T07:35:04;93694.59;;;9.94;62.35
30744;BME280;17486;46.738;7.622;2023-03-14T07:37:30;93738.63;;;10.20;62.48
30744;BME280;17486;46.738;7.622;2023-03-14T07:39:55;93744.88;;;10.18;61.35
30744;BME280;17486;46.738;7.622;2023-03-14T07:42:21;93747.13;;;9.98;61.60
30744;BME280;17486;46.738;7.622;2023-03-14T07:44:46;93679.00;;;9.70;62.05
30744;BME280;17486;46.738;7.622;2023-03-14T07:47:12;93746.16;;;10.12;62.16
30744;BME280;17486;46.738;7.622;2023-03-14T07:49:37;93696.91;;;9.86;61.74
30744;BME280;17486;46.738;7.622;2023-03-14T07:52:03;93702.88;;;9.75;61.52
30744;BME280;17486;46.738;7.622;2023-03-14T07:54:28;93725.25;;;9.89;61.16
30744;BME280;17486;46.738;7.622;2023-03-14T07:56:54;93730.28;;;9.79;60.95
30744;BME280;17486;46.738;7.622;2023-03-14T07:59:19;93733.38;;;9.85;61.19
30744;BME280;17486;46.738;7.622;2023-03-14T08:01:44;93736.19;;;9.82;61.68
30744;BME280;17486;46.738;7.622;2023-03-14T08:04:10;93725.41;;;9.75;61.12
30744;BME280;17486;46.738;7.622;2023-03-14T08:06:36;93761.34;;;10.05;60.96
30744;BME280;17486;46.738;7.622;2023-03-14T08:09:02;93770.97;;;10.16;60.42
30744;BME280;17486;46.738;7.622;2023-03-14T08:11:28;93723.31;;;9.80;60.48
30744;BME280;17486;46.738;7.622;2023-03-14T08:13:53;93763.47;;;9.87;60.65
30744;BME280;17486;46.738;7.622;2023-03-14T08:16:19;93761.16;;;9.71;60.83
30744;BME280;17486;46.738;7.622;2023-03-14T08:18:45;93718.97;;;9.31;61.29
30744;BME280;17486;46.738;7.622;2023-03-14T08:21:11;93759.72;;;9.54;60.68
30744;BME280;17486;46.738;7.622;2023-03-14T08:23:37;93705.00;;;9.20;61.29
30744;BME280;17486;46.738;7.622;2023-03-14T08:26:02;93772.28;;;9.60;61.14
30744;BME280;17486;46.738;7.622;2023-03-14T08:28:27;93764.91;;;9.67;61.00
30744;BME280;17486;46.738;7.622;2023-03-14T08:30:58;93779.09;;;9.74;60.78
30744;BME280;17486;46.738;7.622;2023-03-14T08:33:25;93793.81;;;9.87;60.83
30744;BME280;17486;46.738;7.622;2023-03-14T08:35:52;93772.31;;;9.85;60.78
30744;BME280;17486;46.738;7.622;2023-03-14T08:38:18;93728.31;;;9.70;59.97
30744;BME280;17486;46.738;7.622;2023-03-14T08:40:43;93793.09;;;10.22;59.88
30744;BME280;17486;46.738;7.622;2023-03-14T08:43:09;93723.84;;;9.85;58.73
30744;BME280;17486;46.738;7.622;2023-03-14T08:45:34;93775.06;;;10.32;58.28
30744;BME280;17486;46.738;7.622;2023-03-14T08:47:59;93733.03;;;10.13;57.55
30744;BME280;17486;46.738;7.622;2023-03-14T08:50:25;93793.97;;;10.58;57.64
30744;BME280;17486;46.738;7.622;2023-03-14T08:52:50;93760.06;;;10.48;57.08
30744;BME280;17486;46.738;7.622;2023-03-14T08:55:16;93741.50;;;10.53;55.94
30744;BME280;17486;46.738;7.622;2023-03-14T08:57:41;93733.50;;;10.56;54.44
30744;BME280;17486;46.738;7.622;2023-03-14T09:00:07;93753.28;;;10.81;54.43
30744;BME280;17486;46.738;7.622;2023-03-14T09:02:40;93797.09;;;11.10;52.24
30744;BME280;17486;46.738;7.622;2023-03-14T09:05:06;93754.47;;;10.88;50.27
30744;BME280;17486;46.738;7.622;2023-03-14T09:07:32;93788.84;;;11.16;51.18
30744;BME280;17486;46.738;7.622;2023-03-14T09:09:57;93804.25;;;11.31;51.63
30744;BME280;17486;46.738;7.622;2023-03-14T09:12:22;93745.41;;;10.94;51.11
30744;BME280;17486;46.738;7.622;2023-03-14T09:14:48;93817.81;;;11.34;51.23
30744;BME280;17486;46.738;7.622;2023-03-14T09:17:13;93807.06;;;11.27;52.87
30744;BME280;17486;46.738;7.622;2023-03-14T09:19:38;93821.84;;;11.27;53.45
30744;BME280;17486;46.738;7.622;2023-03-14T09:22:04;93768.34;;;11.00;52.80
30744;BME280;17486;46.738;7.622;2023-03-14T09:24:29;93833.34;;;11.36;50.75
30744;BME280;17486;46.738;7.622;2023-03-14T09:26:55;93834.41;;;11.44;50.93
30744;BME280;17486;46.738;7.622;2023-03-14T09:29:22;93770.97;;;11.11;50.95
30744;BME280;17486;46.738;7.622;2023-03-14T09:31:47;93835.13;;;11.47;48.86
30744;BME280;17486;46.738;7.622;2023-03-14T09:34:13;93799.03;;;11.42;49.44
30744;BME280;17486;46.738;7.622;2023-03-14T09:36:38;93793.22;;;11.38;49.19
30744;BME280;17486;46.738;7.622;2023-03-14T09:39:05;93857.06;;;11.78;50.51
30744;BME280;17486;46.738;7.622;2023-03-14T09:41:34;93862.16;;;11.91;50.56
30744;BME280;17486;46.738;7.622;2023-03-14T09:44:09;93875.44;;;11.99;51.22
30744;BME280;17486;46.738;7.622;2023-03-14T09:46:38;93816.19;;;11.78;50.06
30744;BME280;17486;46.738;7.622;2023-03-14T09:49:22;93824.94;;;11.77;49.00
30744;BME280;17486;46.738;7.622;2023-03-14T09:51:51;93880.28;;;12.15;49.52
30744;BME280;17486;46.738;7.622;2023-03-14T09:54:30;93863.09;;;12.01;49.01
30744;BME280;17486;46.738;7.622;2023-03-14T09:56:56;93887.50;;;12.11;49.57
30744;BME280;17486;46.738;7.622;2023-03-14T09:59:22;93818.81;;;11.56;49.56
30744;BME280;17486;46.738;7.622;2023-03-14T10:01:47;93827.94;;;11.50;49.29
30744;BME280;17486;46.738;7.622;2023-03-14T10:04:15;93887.38;;;11.79;49.65
30744;BME280;17486;46.738;7.622;2023-03-14T10:06:44;93923.81;;;11.68;49.64
30744;BME280;17486;46.738;7.622;2023-03-14T10:09:21;93865.16;;;11.28;49.68
30744;BME280;17486;46.738;7.622;2023-03-14T10:11:56;93917.88;;;11.54;50.77
30744;BME280;17486;46.738;7.622;2023-03-14T10:14:30;93899.94;;;11.38;50.57
30744;BME280;17486;46.738;7.622;2023-03-14T10:17:04;93953.75;;;11.73;51.56
30744;BME280;17486;46.738;7.622;2023-03-14T10:19:31;93888.03;;;11.47;51.62
30744;BME280;17486;46.738;7.622;2023-03-14T10:22:00;93969.66;;;11.82;52.09
30744;BME280;17486;46.738;7.622;2023-03-14T10:24:28;93905.44;;;11.58;51.89
30744;BME280;17486;46.738;7.622;2023-03-14T10:26:58;93954.50;;;11.87;52.12
30744;BME280;17486;46.738;7.622;2023-03-14T10:29:26;93970.19;;;11.98;52.36
30744;BME280;17486;46.738;7.622;2023-03-14T10:32:18;93961.19;;;12.02;53.81
30744;BME280;17486;46.738;7.622;2023-03-14T10:34:44;93955.09;;;11.90;54.00
30744;BME280;17486;46.738;7.622;2023-03-14T10:39:48;93981.81;;;12.05;54.89
30744;BME280;17486;46.738;7.622;2023-03-14T10:42:28;93981.75;;;11.94;53.89
30744;BME280;17486;46.738;7.622;2023-03-14T10:45:25;93967.03;;;11.70;53.45
30744;BME280;17486;46.738;7.622;2023-03-14T10:47:53;93932.53;;;11.44;52.15
30744;BME280;17486;46.738;7.622;2023-03-14T10:50:24;94000.19;;;11.80;52.59
30744;BME280;17486;46.738;7.622;2023-03-14T10:52:53;93944.97;;;11.52;52.69
30744;BME280;17486;46.738;7.622;2023-03-14T10:55:18;93948.88;;;11.57;52.08
30744;BME280;17486;46.738;7.622;2023-03-14T10:57:44;93976.97;;;11.65;51.04
30744;BME280;17486;46.738;7.622;2023-03-14T11:00:19;93982.41;;;11.62;51.11
30744;BME280;17486;46.738;7.622;2023-03-14T11:03:16;94022.53;;;11.95;51.12
30744;BME280;17486;46.738;7.622;2023-03-14T11:05:51;94032.78;;;11.85;50.62
30744;BME280;17486;46.738;7.622;2023-03-14T11:08:25;94045.41;;;11.78;50.43
30744;BME280;17486;46.738;7.622;2023-03-14T11:10:54;94058.56;;;11.77;50.45
30744;BME280;17486;46.738;7.622;2023-03-14T11:13:26;94014.72;;;11.35;51.15
30744;BME280;17486;46.738;7.622;2023-03-14T11:27:00;94105.53;;;11.27;52.47
30744;BME280;17486;46.738;7.622;2023-03-14T11:29:56;94107.88;;;11.19;52.36
30744;BME280;17486;46.738;7.622;2023-03-14T11:32:41;94130.44;;;11.18;52.19
30744;BME280;17486;46.738;7.622;2023-03-14T11:35:26;94142.13;;;11.13;52.12
30744;BME280;17486;46.738;7.622;2023-03-14T11:38:11;94150.84;;;11.11;52.69
30744;BME280;17486;46.738;7.622;2023-03-14T11:40:38;94105.09;;;10.83;53.43
30744;BME280;17486;46.738;7.622;2023-03-14T11:45:43;94115.06;;;11.02;51.74
30744;BME280;17486;46.738;7.622;2023-03-14T11:48:26;94188.91;;;11.38;52.62
30744;BME280;17486;46.738;7.622;2023-03-14T11:50:57;94170.09;;;11.35;52.31
30744;BME280;17486;46.738;7.622;2023-03-14T11:59:05;94164.75;;;11.36;52.61
30744;BME280;17486;46.738;7.622;2023-03-14T12:01:45;94242.25;;;11.70;53.55
30744;BME280;17486;46.738;7.622;2023-03-14T12:04:25;94281.66;;;11.65;52.51
30744;BME280;17486;46.738;7.622;2023-03-14T12:06:56;94220.78;;;11.29;51.36
30744;BME280;17486;46.738;7.622;2023-03-14T12:09:23;94265.66;;;11.33;50.55
30744;BME280;17486;46.738;7.622;2023-03-14T12:12:01;94257.84;;;10.81;51.65
30744;BME280;17486;46.738;7.622;2023-03-14T12:14:30;94216.19;;;10.28;51.20
30744;BME280;17486;46.738;7.622;2023-03-14T12:16:59;94276.03;;;10.41;51.73
30744;BME280;17486;46.738;7.622;2023-03-14T12:19:31;94338.56;;;10.10;52.09
30744;BME280;17486;46.738;7.622;2023-03-14T12:24:36;94363.38;;;9.58;53.26
30744;BME280;17486;46.738;7.622;2023-03-14T12:27:04;94382.28;;;9.46;52.91
30744;BME280;17486;46.738;7.622;2023-03-14T12:29:30;94349.31;;;9.03;51.89
30744;BME280;17486;46.738;7.622;2023-03-14T12:32:22;94396.13;;;9.16;52.88
30744;BME280;17486;46.738;7.622;2023-03-14T12:34:48;94400.44;;;9.32;52.15
30744;BME280;17486;46.738;7.622;2023-03-14T12:37:24;94395.72;;;9.53;51.38
30744;BME280;17486;46.738;7.622;2023-03-14T12:40:16;94418.09;;;9.70;50.48
30744;BME280;17486;46.738;7.622;2023-03-14T12:45:32;94440.81;;;10.09;51.26
30744;BME280;17486;46.738;7.622;2023-03-14T12:50:46;94455.69;;;10.51;49.55
30744;BME280;17486;46.738;7.622;2023-03-14T12:56:15;94456.66;;;10.77;48.46
30744;BME280;17486;46.738;7.622;2023-03-14T13:01:46;94427.97;;;10.64;45.98
30744;BME280;17486;46.738;7.622;2023-03-14T13:04:13;94411.34;;;10.67;45.50
30744;BME280;17486;46.738;7.622;2023-03-14T13:06:56;94492.25;;;11.04;44.61
30744;BME280;17486;46.738;7.622;2023-03-14T13:12:14;94417.72;;;10.75;44.72
30744;BME280;17486;46.738;7.622;2023-03-14T13:14:45;94493.44;;;11.13;44.08
30744;BME280;17486;46.738;7.622;2023-03-14T13:17:13;94488.22;;;11.13;43.89
30744;BME280;17486;46.738;7.622;2023-03-14T13:19:39;94414.28;;;10.75;43.58
30744;BME280;17486;46.738;7.622;2023-03-14T13:22:19;94464.06;;;11.10;43.43
30744;BME280;17486;46.738;7.622;2023-03-14T13:24:45;94433.09;;;10.93;43.31
30744;BME280;17486;46.738;7.622;2023-03-14T13:27:18;94438.25;;;11.07;43.76
30744;BME280;17486;46.738;7.622;2023-03-14T13:29:48;94459.00;;;11.22;43.42
30744;BME280;17486;46.738;7.622;2023-03-14T13:32:20;94453.03;;;11.20;42.62
30744;BME280;17486;46.738;7.622;2023-03-14T13:34:46;94415.59;;;10.95;43.10
30744;BME280;17486;46.738;7.622;2023-03-14T13:37:20;94417.47;;;10.93;43.46
30744;BME280;17486;46.738;7.622;2023-03-14T13:39:50;94479.31;;;11.30;43.60
30744;BME280;17486;46.738;7.622;2023-03-14T13:42:17;94399.56;;;10.88;42.13
30744;BME280;17486;46.738;7.622;2023-03-14T13:44:42;94458.59;;;11.28;43.22
30744;BME280;17486;46.738;7.622;2023-03-14T13:47:17;94406.00;;;11.23;42.53
30744;BME280;17486;46.738;7.622;2023-03-14T13:49:44;94400.13;;;11.47;43.12
30744;BME280;17486;46.738;7.622;2023-03-14T13:52:36;94459.97;;;12.00;43.18
30744;BME280;17486;46.738;7.622;2023-03-14T13:55:03;94397.84;;;11.93;41.88
30744;BME280;17486;46.738;7.622;2023-03-14T13:57:46;94441.34;;;12.56;41.76
30744;BME280;17486;46.738;7.622;2023-03-14T14:00:23;94422.31;;;12.67;40.75
30744;BME280;17486;46.738;7.622;2023-03-14T14:03:01;94437.50;;;12.86;39.94
30744;BME280;17486;46.738;7.622;2023-03-14T14:05:28;94401.13;;;12.71;39.57
30744;BME280;17486;46.738;7.622;2023-03-14T14:07:55;94372.41;;;12.71;40.00